createdAt,value
2023-04-17T00:02:26.572Z,21.38
2023-04-17T00:07:29.475Z,21.29
2023-04-17T00:12:33.949Z,21.24
2023-04-17T00:17:36.765Z,21.12
2023-04-17T00:22:39.766Z,21.15
2023-04-17T00:27:44.000Z,21.06
2023-04-17T00:32:46.903Z,21.06
2023-04-17T00:37:49.835Z,21.02
2023-04-17T00:42:56.230Z,21.00
2023-04-17T00:48:00.562Z,20.98
2023-04-17T00:53:03.321Z,20.98
2023-04-17T00:58:07.559Z,20.97
2023-04-17T01:03:10.465Z,20.94
2023-04-17T01:08:13.540Z,20.93
2023-04-17T01:13:17.673Z,20.89
2023-04-17T01:18:20.908Z,20.88
2023-04-17T01:23:23.710Z,20.87
2023-04-17T01:28:28.084Z,20.84
2023-04-17T01:33:31.049Z,20.82
2023-04-17T01:38:33.998Z,20.79
2023-04-17T01:43:39.673Z,20.78
2023-04-17T01:48:42.546Z,20.76
2023-04-17T01:53:45.505Z,20.76
2023-04-17T01:58:49.640Z,20.75
2023-04-17T02:03:52.515Z,20.72
2023-04-17T02:08:55.989Z,20.69
2023-04-17T02:14:00.334Z,20.66
2023-04-17T02:19:03.307Z,20.67
2023-04-17T02:24:07.980Z,20.67
2023-04-17T02:29:12.294Z,20.66
2023-04-17T02:34:15.475Z,20.65
2023-04-17T02:39:19.339Z,20.61
2023-04-17T02:44:23.606Z,20.62
2023-04-17T02:49:26.473Z,20.62
2023-04-17T02:54:29.300Z,20.61
2023-04-17T02:59:33.489Z,20.62
2023-04-17T03:04:36.289Z,20.59
2023-04-17T03:09:39.828Z,20.59
2023-04-17T03:14:44.320Z,20.58
2023-04-17T03:19:47.433Z,20.59
2023-04-17T03:24:50.541Z,20.59
2023-04-17T03:29:55.614Z,20.51
2023-04-17T03:34:59.863Z,20.50
2023-04-17T03:40:04.078Z,20.51
2023-04-17T03:45:10.250Z,20.49
2023-04-17T03:50:14.359Z,20.50
2023-04-17T03:55:24.263Z,20.47
2023-04-17T04:00:28.982Z,20.46
2023-04-17T04:05:36.580Z,20.43
2023-04-17T04:10:40.091Z,20.46
2023-04-17T04:15:44.707Z,20.41
2023-04-17T04:20:48.316Z,20.36
2023-04-17T04:25:57.853Z,20.36
2023-04-17T04:31:10.076Z,20.33
2023-04-17T04:36:20.986Z,20.32
2023-04-17T04:41:33.842Z,20.29
2023-04-17T04:46:42.437Z,20.29
2023-04-17T04:51:45.510Z,20.26
2023-04-17T04:56:49.204Z,20.25
2023-04-17T05:01:53.519Z,20.24
2023-04-17T05:06:58.850Z,20.22
2023-04-17T05:12:02.330Z,20.20
2023-04-17T05:17:08.299Z,20.20
2023-04-17T05:22:11.184Z,20.19
2023-04-17T05:27:26.853Z,20.17
2023-04-17T05:32:32.030Z,20.19
2023-04-17T05:37:40.155Z,20.17
2023-04-17T05:42:43.063Z,20.14
2023-04-17T05:47:47.507Z,20.13
2023-04-17T05:52:50.924Z,20.14
2023-04-17T05:57:55.636Z,20.13
2023-04-17T06:03:02.971Z,20.10
2023-04-17T06:08:16.300Z,20.10
2023-04-17T06:13:19.099Z,20.10
2023-04-17T06:18:26.798Z,20.07
2023-04-17T06:23:29.591Z,20.07
2023-04-17T06:28:32.935Z,20.03
2023-04-17T06:33:37.589Z,20.05
2023-04-17T06:38:41.052Z,20.06
2023-04-17T06:43:44.463Z,20.05
2023-04-17T06:48:52.297Z,20.05
2023-04-17T06:53:55.276Z,20.04
2023-04-17T06:58:58.506Z,20.05
2023-04-17T07:04:03.449Z,20.03
2023-04-17T07:09:07.512Z,20.05
2023-04-17T07:14:12.731Z,20.06
2023-04-17T07:19:17.057Z,20.07
2023-04-17T07:24:19.771Z,20.05
2023-04-17T07:29:22.631Z,20.09
2023-04-17T07:34:27.053Z,20.12
2023-04-17T07:39:31.653Z,20.10
2023-04-17T07:44:34.446Z,20.12
2023-04-17T07:49:40.325Z,20.13
2023-04-17T07:54:43.138Z,20.17
2023-04-17T07:59:46.164Z,20.18
2023-04-17T08:04:52.363Z,20.26
2023-04-17T08:09:55.445Z,20.27
2023-04-17T08:15:02.029Z,19.89
2023-04-17T08:20:13.435Z,19.30
2023-04-17T08:25:16.413Z,19.31
2023-04-17T08:30:20.213Z,19.63
2023-04-17T08:35:25.213Z,19.78
2023-04-17T08:40:28.021Z,19.68
2023-04-17T08:45:30.915Z,19.76
2023-04-17T08:50:35.041Z,19.89
2023-04-17T08:55:37.842Z,19.79
2023-04-17T09:00:41.553Z,19.88
2023-04-17T09:05:46.498Z,19.91
2023-04-17T09:10:50.229Z,20.30
2023-04-17T09:16:04.880Z,20.44
2023-04-17T09:21:09.676Z,20.46
2023-04-17T09:26:14.941Z,20.31
2023-04-17T09:31:27.300Z,20.50
2023-04-17T09:36:32.135Z,20.57
2023-04-17T09:41:36.529Z,20.59
2023-04-17T09:46:41.415Z,20.61
2023-04-17T09:51:45.860Z,20.62
2023-04-17T09:56:49.727Z,20.62
2023-04-17T10:01:54.257Z,20.59
2023-04-17T10:06:58.607Z,20.32
2023-04-17T10:12:01.893Z,20.51
2023-04-17T10:17:26.301Z,20.49
2023-04-17T10:22:34.819Z,20.45
2023-04-17T10:27:45.385Z,20.49
2023-04-17T10:32:49.657Z,20.59
2023-04-17T10:38:07.180Z,20.53
2023-04-17T10:43:13.119Z,20.44
2023-04-17T10:48:21.663Z,20.45
2023-04-17T10:53:46.543Z,20.50
2023-04-17T10:58:59.413Z,20.48
2023-04-17T11:04:02.602Z,20.34
2023-04-17T11:09:08.639Z,20.30
2023-04-17T11:14:14.158Z,20.29
2023-04-17T11:19:19.502Z,20.24
2023-04-17T11:24:28.105Z,20.13
2023-04-17T11:29:31.324Z,20.03
2023-04-17T11:34:34.290Z,20.02
2023-04-17T11:39:38.490Z,20.03
2023-04-17T11:44:44.495Z,20.05
2023-04-17T11:49:47.462Z,20.11
2023-04-17T11:54:58.262Z,20.17
2023-04-17T12:00:01.069Z,20.38
2023-04-17T12:05:14.344Z,20.52
2023-04-17T12:10:18.741Z,20.94
2023-04-17T12:15:21.835Z,20.95
2023-04-17T12:20:26.663Z,20.89
2023-04-17T12:25:31.331Z,20.91
2023-04-17T12:30:36.057Z,20.90
2023-04-17T12:35:40.075Z,20.96
2023-04-17T12:40:45.565Z,20.96
2023-04-17T12:45:48.663Z,20.94
2023-04-17T12:50:51.967Z,20.95
2023-04-17T12:55:56.437Z,20.95
2023-04-17T13:00:59.269Z,20.99
2023-04-17T13:06:02.168Z,21.06
2023-04-17T13:11:06.798Z,21.15
2023-04-17T13:16:10.538Z,21.21
2023-04-17T13:21:14.556Z,21.22
2023-04-17T13:26:20.360Z,22.05
2023-04-17T13:31:24.761Z,22.92
2023-04-17T13:36:27.693Z,22.50
2023-04-17T13:41:32.161Z,22.05
2023-04-17T13:46:35.575Z,21.82
2023-04-17T13:51:38.575Z,21.65
2023-04-17T13:56:43.270Z,21.68
2023-04-17T14:01:46.332Z,21.73
2023-04-17T14:06:51.020Z,21.80
2023-04-17T14:11:55.404Z,22.41
2023-04-17T14:16:58.381Z,23.07
2023-04-17T14:22:01.518Z,22.57
2023-04-17T14:27:05.746Z,22.31
2023-04-17T14:32:08.890Z,22.13
2023-04-17T14:37:11.818Z,22.05
2023-04-17T14:42:16.108Z,23.36
2023-04-17T14:47:19.106Z,23.70
2023-04-17T14:52:22.231Z,23.03
2023-04-17T14:57:26.626Z,22.90
2023-04-17T15:02:30.480Z,22.69
2023-04-17T15:07:33.317Z,22.66
2023-04-17T15:12:37.734Z,22.66
2023-04-17T15:17:40.807Z,22.55
2023-04-17T15:22:43.899Z,22.42
2023-04-17T15:27:48.287Z,22.31
2023-04-17T15:32:51.291Z,22.24
2023-04-17T15:37:54.424Z,22.07
2023-04-17T15:42:58.952Z,22.00
2023-04-17T15:48:02.108Z,21.88
2023-04-17T15:53:13.374Z,21.80
2023-04-17T15:58:18.664Z,21.79
2023-04-17T16:03:22.485Z,21.84
2023-04-17T16:08:25.610Z,21.87
2023-04-17T16:13:29.874Z,21.81
2023-04-17T16:18:32.824Z,21.79
2023-04-17T16:23:38.872Z,21.74
2023-04-17T16:28:43.156Z,21.65
2023-04-17T16:33:45.995Z,21.62
2023-04-17T16:38:48.807Z,21.55
2023-04-17T16:43:52.953Z,21.52
2023-04-17T16:48:55.867Z,21.47
2023-04-17T16:53:58.924Z,21.44
2023-04-17T16:59:04.213Z,21.42
2023-04-17T17:04:07.064Z,21.36
2023-04-17T17:09:09.886Z,21.37
2023-04-17T17:14:14.343Z,21.32
2023-04-17T17:19:17.421Z,21.28
2023-04-17T17:24:20.153Z,21.27
2023-04-17T17:29:24.341Z,21.26
2023-04-17T17:34:27.562Z,21.26
2023-04-17T17:39:30.556Z,21.22
2023-04-17T17:44:34.756Z,21.23
2023-04-17T17:49:37.625Z,21.22
2023-04-17T17:54:41.845Z,21.20
2023-04-17T17:59:46.061Z,21.24
2023-04-17T18:04:49.171Z,21.21
2023-04-17T18:09:52.187Z,21.22
2023-04-17T18:14:56.420Z,21.20
2023-04-17T18:19:59.271Z,21.25
2023-04-17T18:25:02.176Z,21.27
2023-04-17T18:30:07.057Z,21.31
2023-04-17T18:35:10.499Z,21.28
2023-04-17T18:40:13.924Z,21.30
2023-04-17T18:45:18.305Z,21.32
2023-04-17T18:50:21.176Z,21.34
2023-04-17T18:55:23.966Z,21.33
2023-04-17T19:00:28.187Z,21.33
2023-04-17T19:05:31.239Z,21.36
2023-04-17T19:10:34.063Z,21.32
2023-04-17T19:15:39.301Z,21.43
2023-04-17T19:20:42.751Z,21.45
2023-04-17T19:25:45.501Z,21.43
2023-04-17T19:30:49.625Z,21.46
2023-04-17T19:35:53.185Z,21.47
2023-04-17T19:41:17.234Z,21.52
2023-04-17T19:46:21.919Z,21.48
2023-04-17T19:51:24.827Z,21.48
2023-04-17T19:56:27.691Z,21.48
2023-04-17T20:01:32.127Z,21.53
2023-04-17T20:06:34.927Z,21.51
2023-04-17T20:11:37.796Z,21.53
2023-04-17T20:16:44.326Z,21.53
2023-04-17T20:21:47.782Z,21.57
2023-04-17T20:26:50.560Z,21.57
2023-04-17T20:31:54.668Z,21.61
2023-04-17T20:36:57.688Z,21.58
2023-04-17T20:42:01.523Z,21.65
2023-04-17T20:47:05.930Z,21.65
2023-04-17T20:52:08.772Z,21.66
2023-04-17T20:57:11.533Z,21.63
2023-04-17T21:02:16.266Z,21.67
2023-04-17T21:07:19.745Z,21.66
2023-04-17T21:12:22.492Z,21.66
2023-04-17T21:17:26.792Z,21.70
2023-04-17T21:22:29.626Z,21.70
2023-04-17T21:27:32.390Z,21.70
2023-04-17T21:32:36.545Z,21.72
2023-04-17T21:37:39.494Z,21.74
2023-04-17T21:42:42.502Z,21.72
2023-04-17T21:47:46.639Z,21.74
2023-04-17T21:52:49.381Z,21.76
2023-04-17T21:57:52.111Z,21.82
2023-04-17T22:02:56.346Z,21.77
2023-04-17T22:08:00.568Z,21.70
2023-04-17T22:13:03.442Z,21.64
2023-04-17T22:18:07.717Z,21.58
2023-04-17T22:23:10.626Z,21.62
2023-04-17T22:28:13.544Z,21.57
2023-04-17T22:33:17.895Z,21.57
2023-04-17T22:38:21.306Z,21.52
2023-04-17T22:43:24.079Z,21.49
2023-04-17T22:48:28.706Z,21.44
2023-04-17T22:53:31.464Z,21.31
2023-04-17T22:58:34.667Z,21.30
2023-04-17T23:03:38.868Z,21.17
2023-04-17T23:08:41.682Z,21.08
2023-04-17T23:13:44.525Z,20.98
2023-04-17T23:18:48.629Z,20.91
2023-04-17T23:23:51.903Z,20.89
2023-04-17T23:28:54.696Z,20.88
2023-04-17T23:33:58.867Z,20.82
2023-04-17T23:39:02.945Z,20.85
2023-04-17T23:44:06.358Z,20.76
2023-04-17T23:49:10.504Z,20.80
2023-04-17T23:54:13.538Z,20.70
2023-04-17T23:59:16.466Z,20.64
